Página principal
METAR-TAF:

METAR-TAF

Aeroportos :

Beirute, Líbano

latitude: 33-49N, longitude: 035-29E, altura: 29 m

Observação actual do tempo

O boletim foi feito há 58 minutos, às 06:00 UTC
Vento 7 kt de su-sudoeste, variando entre su-sudeste e oes-sudoeste
Temperatura 29°C
Humidade 58%
Pressão 1011 hPa
Visibilidade: 8000 m
Nuvens dispersasa uma altura de 2700 ft

METAR: OLBA 170600Z 21007KT 160V250 8000 SCT027 29/20 Q1011 NOSIG

Hora: 09:58 (06:58 UTC)

Previsão

O boletim foi feito há 2 horas e 58 minutos, às 04:00 UTC
Previsão válida de 17 às 06 UTC a 18 às 12 UTC
Vento 15 kt de oes-sudoeste
Visibilidade: 8000 m
Nuvens dispersasa uma altura de 2600 ft
Temporariamente
de 17 às 18 UTC a 18 às 06 UTC
Visibilidade: 5000 m
neblina
Tornando-se
de 18 às 09 UTC a 18 às 12 UTC
Vento 20 kt de oes-sudoeste
Visibilidade: 8000 m

TAF: OLBA 170400Z 1706/1812 24015KT 8000 SCT026 TEMPO 1718/1806 5000 BR BECMG 1809/1812 25020KT 8000

Observações e previsões do tempo de mais de 4000 aeroportos (mensagens METAR e TAF).

As estações disponíveis são os pontos amarelos e vermelhos sobre o mapa.

Mova o rato sobre o mapa para ver o nome da estação.

Depois clique no ponto para visualizar as observações e previsões meteorológicas.

Para alterar o mapa : clique nos botões verdes com uma cruz preta para aumentar o zoom; no botão verde com uma pitada de zoom; ou nas setas verdes para mapas adjacentes.


METAR-TAF: